Time;durP1;ratioP1;P1;durP2;ratioP2;P2;SDS_P1;SDS_P2;PMS_P1;PMS_P2;Temp;Humidity;BMP_temperature;BMP_pressure;BME280_temperature;BME280_humidity;BME280_pressure;Samples;Min_cycle;Max_cycle;Signal;HPM_P1;HPM_P2
2022/10/05 00:00:53;;;;;;;54.40;49.10;;;;;;;3.94;99.22;98678.71;106358;1271;23324;-81
2022/10/05 00:03:35;;;;;;;60.50;54.20;;;;;;;3.92;99.17;98676.60;106297;1271;22600;-81
2022/10/05 00:06:04;;;;;;;43.40;38.80;;;;;;;3.97;99.58;98677.42;106226;1271;22594;-82
2022/10/05 00:08:34;;;;;;;39.10;35.20;;;;;;;3.96;99.95;98679.35;106216;1271;22557;-81
2022/10/05 00:11:06;;;;;;;35.70;32.10;;;;;;;3.97;100.00;98679.42;106303;1270;23925;-82
2022/10/05 00:13:34;;;;;;;41.80;37.80;;;;;;;3.96;100.00;98685.06;106252;1271;25512;-82
2022/10/05 00:16:18;;;;;;;48.80;44.00;;;;;;;3.95;100.00;98683.38;106222;1271;25336;-82
2022/10/05 00:18:51;;;;;;;42.30;37.90;;;;;;;3.96;100.00;98681.96;106361;1271;25338;-82
2022/10/05 00:21:23;;;;;;;36.70;33.20;;;;;;;3.99;100.00;98680.41;106232;1271;23926;-82
2022/10/05 00:23:54;;;;;;;37.10;33.20;;;;;;;3.99;100.00;98678.65;106298;1271;22871;-81
2022/10/05 00:26:25;;;;;;;37.00;33.30;;;;;;;4.01;100.00;98672.40;106228;1271;25299;-81
2022/10/05 00:28:53;;;;;;;37.10;33.10;;;;;;;4.03;100.00;98668.50;106271;1271;24290;-81
2022/10/05 00:31:23;;;;;;;46.00;35.10;;;;;;;4.05;100.00;98671.52;106211;1271;22570;-82
2022/10/05 00:33:53;;;;;;;40.10;36.20;;;;;;;4.03;100.00;98671.80;106297;1271;22604;-81
2022/10/05 00:36:22;;;;;;;38.30;34.50;;;;;;;4.01;100.00;98671.40;106256;1271;22622;-81
2022/10/05 00:38:50;;;;;;;37.90;33.70;;;;;;;4.00;100.00;98671.86;106188;1271;25336;-81
2022/10/05 00:41:52;;;;;;;36.70;32.90;;;;;;;4.02;100.00;98671.40;106200;1271;22531;-81
2022/10/05 00:44:46;;;;;;;33.70;30.50;;;;;;;4.01;100.00;98675.92;106412;1271;24233;-82
2022/10/05 00:47:26;;;;;;;36.40;31.50;;;;;;;4.00;100.00;98670.70;106519;1271;22566;-82
2022/10/05 00:50:02;;;;;;;36.30;32.50;;;;;;;4.02;100.00;98667.14;106213;1274;25392;-82
2022/10/05 00:52:53;;;;;;;39.00;35.00;;;;;;;4.01;100.00;98665.73;106360;1270;23335;-82
2022/10/05 00:55:32;;;;;;;37.70;34.00;;;;;;;4.03;100.00;98660.81;106336;1271;22865;-81
2022/10/05 00:58:14;;;;;;;36.10;32.40;;;;;;;4.00;100.00;98658.77;106318;1271;22671;-81
2022/10/05 01:01:03;;;;;;;34.10;30.90;;;;;;;3.96;100.00;98651.67;106377;1270;24401;-83
2022/10/05 01:04:05;;;;;;;33.00;29.60;;;;;;;3.94;100.00;98648.23;106432;1271;25291;-82
2022/10/05 01:07:08;;;;;;;32.30;28.90;;;;;;;3.92;100.00;98643.85;106292;1271;22689;-81
2022/10/05 01:09:52;;;;;;;36.80;32.60;;;;;;;3.89;100.00;98643.09;106353;1271;25340;-81
2022/10/05 01:12:36;;;;;;;36.40;32.50;;;;;;;3.83;100.00;98642.82;106434;1271;25348;-81
2022/10/05 01:15:05;;;;;;;;;;;;;;;3.79;100.00;98639.27;106420;1271;25305;-82
2022/10/05 01:18:07;;;;;;;37.60;32.20;;;;;;;3.75;100.00;98633.98;106369;1271;22685;-82
2022/10/05 01:20:58;;;;;;;34.50;31.20;;;;;;;3.78;100.00;98637.66;106349;1271;22791;-82
2022/10/05 01:23:36;;;;;;;32.50;29.00;;;;;;;3.75;100.00;98640.33;106319;1271;25337;-82
2022/10/05 01:26:25;;;;;;;37.10;33.50;;;;;;;3.70;100.00;98637.20;106247;1274;26526;-81
2022/10/05 01:29:07;;;;;;;36.70;33.10;;;;;;;3.69;100.00;98637.05;106252;1271;22672;-82
2022/10/05 01:32:24;;;;;;;37.50;30.40;;;;;;;3.68;100.00;98636.48;106332;1271;22538;-81
2022/10/05 01:34:58;;;;;;;37.70;33.70;;;;;;;3.78;100.00;98627.27;106145;1274;24732;-80
2022/10/05 01:37:38;;;;;;;35.40;32.00;;;;;;;3.87;100.00;98629.63;106186;1274;24283;-81
2022/10/05 01:40:20;;;;;;;36.00;32.20;;;;;;;3.87;100.00;98623.71;106153;1274;22553;-81
2022/10/05 01:42:51;;;;;;;39.80;35.90;;;;;;;3.83;100.00;98626.79;106152;1274;26568;-81
2022/10/05 01:45:25;;;;;;;39.70;36.00;;;;;;;3.77;100.00;98627.34;106178;1274;25583;-81
2022/10/05 01:48:06;;;;;;;33.10;29.90;;;;;;;3.73;100.00;98631.76;106149;1274;22640;-81
2022/10/05 01:51:07;;;;;;;33.60;30.00;;;;;;;3.71;100.00;98642.64;106184;1274;23714;-81
2022/10/05 01:54:14;;;;;;;33.10;29.60;;;;;;;3.68;100.00;98644.77;105703;1277;22543;-81
2022/10/05 01:56:57;;;;;;;32.90;29.70;;;;;;;3.70;100.00;98644.91;105988;1274;22874;-81
2022/10/05 01:59:39;;;;;;;35.10;31.90;;;;;;;3.68;100.00;98648.48;106093;1274;23403;-81
2022/10/05 02:02:11;;;;;;;37.60;33.80;;;;;;;3.67;100.00;98646.86;106133;1274;24238;-80
2022/10/05 02:04:48;;;;;;;42.70;38.80;;;;;;;3.66;100.00;98649.46;106146;1274;25391;-81
2022/10/05 02:07:35;;;;;;;34.20;30.70;;;;;;;3.71;100.00;98650.84;106316;1271;24408;-81
2022/10/05 02:10:31;;;;;;;35.60;32.30;;;;;;;3.71;100.00;98642.96;106277;1271;22723;-80
2022/10/05 02:13:14;;;;;;;34.70;31.20;;;;;;;3.80;100.00;98634.13;106214;1271;22553;-83
2022/10/05 02:15:53;;;;;;;31.20;28.10;;;;;;;3.93;100.00;98626.75;106163;1271;22870;-81
2022/10/05 02:18:29;;;;;;;34.50;31.10;;;;;;;4.04;100.00;98621.42;106297;1271;24405;-81
2022/10/05 02:21:01;;;;;;;36.20;32.60;;;;;;;4.12;100.00;98622.10;106212;1271;23352;-82
2022/10/05 02:23:37;;;;;;;34.50;31.30;;;;;;;4.09;100.00;98619.18;106289;1271;22885;-82
2022/10/05 02:26:09;;;;;;;31.70;28.50;;;;;;;4.03;100.00;98618.00;106272;1271;22548;-82
2022/10/05 02:28:57;;;;;;;31.80;28.60;;;;;;;4.02;100.00;98616.53;106264;1271;22634;-81
2022/10/05 02:31:53;;;;;;;28.60;25.70;;;;;;;4.08;100.00;98615.68;106294;1271;22891;-82
2022/10/05 02:34:38;;;;;;;29.40;26.40;;;;;;;4.08;100.00;98617.77;106293;1271;25928;-81
2022/10/05 02:38:07;;;;;;;31.90;28.70;;;;;;;4.00;100.00;98618.84;106220;1271;22644;-82
2022/10/05 02:40:57;;;;;;;33.80;30.40;;;;;;;3.95;100.00;98608.88;106111;1271;26679;-82
2022/10/05 02:43:52;;;;;;;29.50;26.70;;;;;;;3.91;100.00;98602.35;106336;1270;22680;-81
2022/10/05 02:46:33;;;;;;;24.50;22.10;;;;;;;3.93;100.00;98600.26;106220;1271;25397;-81
2022/10/05 02:49:39;;;;;;;24.80;22.30;;;;;;;4.03;100.00;98595.96;106222;1271;26570;-81
2022/10/05 02:52:17;;;;;;;31.50;24.90;;;;;;;4.16;100.00;98594.91;106254;1271;22525;-81
2022/10/05 02:54:48;;;;;;;23.10;20.80;;;;;;;4.13;100.00;98590.06;106260;1271;25400;-81
2022/10/05 02:57:30;;;;;;;27.10;24.50;;;;;;;4.13;100.00;98587.23;106251;1271;25222;-80
2022/10/05 03:00:38;;;;;;;29.00;26.10;;;;;;;4.13;100.00;98591.66;106201;1271;22681;-81
2022/10/05 03:03:22;;;;;;;31.50;28.20;;;;;;;4.13;100.00;98588.83;106103;1274;25511;-82
2022/10/05 03:06:11;;;;;;;32.30;28.90;;;;;;;4.11;100.00;98586.72;106084;1274;24402;-81
2022/10/05 03:08:48;;;;;;;29.10;25.70;;;;;;;4.17;100.00;98590.87;106010;1274;25221;-81
2022/10/05 03:11:40;;;;;;;26.40;23.70;;;;;;;4.27;100.00;98595.27;106017;1274;24222;-82
2022/10/05 03:14:10;;;;;;;22.10;19.80;;;;;;;4.27;100.00;98597.61;105979;1274;24420;-81
2022/10/05 03:17:03;;;;;;;22.50;18.60;;;;;;;4.26;100.00;98596.04;106075;1274;22757;-79
2022/10/05 03:19:44;;;;;;;24.10;20.60;;;;;;;4.27;100.00;98600.60;105898;1276;22712;-81
2022/10/05 03:22:18;;;;;;;19.20;17.20;;;;;;;4.31;100.00;98604.30;106053;1274;25417;-82
2022/10/05 03:24:53;;;;;;;20.00;17.50;;;;;;;4.34;100.00;98612.23;105955;1274;22678;-82
2022/10/05 03:27:32;;;;;;;19.40;16.90;;;;;;;4.35;100.00;98616.64;105966;1274;22985;-82
2022/10/05 03:30:17;;;;;;;20.80;17.80;;;;;;;4.39;100.00;98620.28;106086;1274;22642;-82
2022/10/05 03:33:24;;;;;;;25.80;19.20;;;;;;;4.47;100.00;98631.30;106042;1274;25462;-82
2022/10/05 03:36:05;;;;;;;21.90;19.70;;;;;;;4.56;100.00;98637.02;106309;1271;22546;-81
2022/10/05 03:38:36;;;;;;;19.00;16.80;;;;;;;4.64;100.00;98641.47;106253;1271;23340;-81
2022/10/05 03:41:31;;;;;;;27.10;18.80;;;;;;;4.65;100.00;98643.99;106222;1271;22693;-82
2022/10/05 03:44:14;;;;;;;20.70;15.90;;;;;;;4.60;100.00;98640.38;106213;1271;23215;-81
2022/10/05 03:46:57;;;;;;;28.10;16.10;;;;;;;4.57;100.00;98639.54;106262;1271;22712;-82
2022/10/05 03:49:46;;;;;;;17.50;15.50;;;;;;;4.53;100.00;98638.08;106213;1271;22674;-82
2022/10/05 03:52:21;;;;;;;20.10;17.90;;;;;;;4.45;100.00;98639.39;106252;1270;22751;-81
2022/10/05 03:54:56;;;;;;;25.20;22.70;;;;;;;4.40;100.00;98638.23;106246;1270;25229;-81
2022/10/05 03:57:33;;;;;;;22.80;17.00;;;;;;;4.36;100.00;98641.73;106240;1271;24408;-81
2022/10/05 04:00:05;;;;;;;18.30;16.30;;;;;;;4.35;100.00;98639.99;106226;1271;22716;-81
2022/10/05 04:03:26;;;;;;;17.70;15.10;;;;;;;4.36;100.00;98627.66;106299;1271;23374;-81
2022/10/05 04:06:02;;;;;;;22.40;17.20;;;;;;;4.45;100.00;98619.54;105910;1277;25451;-81
2022/10/05 04:08:51;;;;;;;20.20;14.70;;;;;;;4.52;100.00;98598.52;105984;1277;22632;-81
2022/10/05 04:11:27;;;;;;;16.20;14.30;;;;;;;4.60;100.00;98589.56;105982;1277;22679;-82
2022/10/05 04:14:05;;;;;;;23.00;17.70;;;;;;;4.64;100.00;98591.92;105958;1277;22565;-82
2022/10/05 04:17:16;;;;;;;26.80;18.40;;;;;;;4.59;100.00;98583.56;106023;1277;25448;-81
2022/10/05 04:20:00;;;;;;;25.20;20.20;;;;;;;4.46;100.00;98580.80;105928;1278;23940;-81
2022/10/05 04:22:38;;;;;;;21.10;18.30;;;;;;;4.40;100.00;98579.75;106020;1277;23463;-81
2022/10/05 04:25:09;;;;;;;23.70;20.40;;;;;;;4.39;100.00;98577.48;106078;1277;25308;-81
2022/10/05 04:27:41;;;;;;;17.10;14.10;;;;;;;4.40;100.00;98569.59;105965;1277;23015;-81
2022/10/05 04:30:16;;;;;;;27.90;25.10;;;;;;;4.46;100.00;98571.89;105944;1276;23526;-81
2022/10/05 04:32:49;;;;;;;19.70;14.70;;;;;;;4.53;100.00;98582.95;106071;1277;23506;-81
2022/10/05 04:35:53;;;;;;;16.90;14.30;;;;;;;4.55;100.00;98590.39;105941;1277;22570;-81
2022/10/05 04:38:57;;;;;;;23.20;18.10;;;;;;;4.66;100.00;98591.89;106208;1271;25442;-81
2022/10/05 04:41:28;;;;;;;19.80;16.10;;;;;;;4.72;100.00;98585.70;106082;1274;24131;-81
2022/10/05 04:44:27;;;;;;;28.30;20.40;;;;;;;4.74;100.00;98589.89;106220;1271;22815;-81
2022/10/05 04:47:21;;;;;;;19.90;14.60;;;;;;;4.72;100.00;98585.05;106236;1271;24282;-81
2022/10/05 04:50:10;;;;;;;17.40;15.30;;;;;;;4.80;100.00;98580.53;105944;1277;24263;-82
2022/10/05 04:53:22;;;;;;;17.90;13.90;;;;;;;4.84;100.00;98589.66;105869;1277;23460;-81
2022/10/05 04:55:57;;;;;;;19.40;13.40;;;;;;;4.78;100.00;98587.07;105777;1280;25104;-81
2022/10/05 04:58:25;;;;;;;32.60;29.60;;;;;;;4.75;100.00;98593.10;105889;1277;25297;-81
2022/10/05 05:00:53;;;;;;;17.60;13.70;;;;;;;4.73;100.00;98597.34;105794;1277;23360;-81
2022/10/05 05:03:37;;;;;;;20.00;14.50;;;;;;;4.72;100.00;98592.96;105809;1277;23972;-82
2022/10/05 05:06:51;;;;;;;17.60;15.80;;;;;;;4.80;100.00;98591.95;105991;1277;22616;-81
2022/10/05 05:09:38;;;;;;;18.20;13.00;;;;;;;4.90;100.00;98593.98;105726;1279;22548;-80
2022/10/05 05:12:21;;;;;;;14.80;12.60;;;;;;;5.03;100.00;98596.63;106041;1277;25452;-81
2022/10/05 05:14:51;;;;;;;16.90;13.00;;;;;;;5.13;100.00;98598.38;105964;1277;22686;-81
2022/10/05 05:17:47;;;;;;;17.80;16.00;;;;;;;5.16;100.00;98597.08;106007;1277;25432;-81
2022/10/05 05:20:26;;;;;;;21.50;16.30;;;;;;;5.16;100.00;98600.48;105984;1277;24415;-81
2022/10/05 05:23:11;;;;;;;17.00;14.40;;;;;;;5.12;100.00;98599.63;105968;1277;25517;-81
2022/10/05 05:25:51;;;;;;;37.40;33.40;;;;;;;5.11;100.00;98600.48;105948;1277;22824;-81
2022/10/05 05:28:41;;;;;;;20.20;13.80;;;;;;;5.20;100.00;98598.79;106225;1271;23189;-82
2022/10/05 05:31:31;;;;;;;15.10;11.70;;;;;;;5.30;100.00;98603.56;106257;1271;22535;-81
2022/10/05 05:34:22;;;;;;;16.00;11.60;;;;;;;5.39;100.00;98599.24;106421;1271;22698;-81
2022/10/05 05:37:12;;;;;;;14.90;11.80;;;;;;;5.48;100.00;98598.24;106454;1271;24243;-81
2022/10/05 05:40:00;;;;;;;17.20;12.10;;;;;;;5.61;100.00;98595.99;106271;1271;22666;-82
2022/10/05 05:42:59;;;;;;;14.50;10.70;;;;;;;5.75;100.00;98590.80;106361;1271;25461;-81
2022/10/05 05:45:42;;;;;;;41.20;12.40;;;;;;;5.89;100.00;98576.05;106313;1271;24350;-81
2022/10/05 05:48:17;;;;;;;16.20;10.10;;;;;;;6.02;100.00;98567.23;106503;1271;22537;-81
2022/10/05 05:50:48;;;;;;;16.30;12.60;;;;;;;6.12;100.00;98569.63;106302;1271;22542;-81
2022/10/05 05:53:43;;;;;;;12.50;11.10;;;;;;;6.12;100.00;98586.96;106441;1271;22538;-81
2022/10/05 05:56:20;;;;;;;14.50;10.40;;;;;;;6.09;100.00;98600.94;106387;1271;25300;-81
2022/10/05 05:59:22;;;;;;;13.90;10.30;;;;;;;6.09;100.00;98599.55;106361;1271;25231;-81
2022/10/05 06:01:58;;;;;;;15.10;10.40;;;;;;;6.18;100.00;98593.86;106228;1271;24207;-81
2022/10/05 06:04:36;;;;;;;13.30;9.80;;;;;;;6.32;100.00;98598.00;106234;1271;25334;-81
2022/10/05 06:07:05;;;;;;;20.60;18.50;;;;;;;6.51;100.00;98602.15;106315;1271;22546;-82
2022/10/05 06:09:46;;;;;;;16.80;14.10;;;;;;;6.62;100.00;98597.52;106263;1271;23411;-82
2022/10/05 06:12:33;;;;;;;15.50;12.80;;;;;;;6.78;100.00;98596.95;106247;1271;25404;-80
2022/10/05 06:15:21;;;;;;;18.90;14.70;;;;;;;6.93;100.00;98608.41;106313;1271;25355;-81
2022/10/05 06:17:53;;;;;;;26.50;23.80;;;;;;;7.07;100.00;98613.45;106252;1271;23528;-82
2022/10/05 06:20:54;;;;;;;16.40;12.10;;;;;;;7.24;100.00;98624.71;106262;1271;24239;-83
2022/10/05 06:23:42;;;;;;;14.40;12.80;;;;;;;7.42;100.00;98633.01;106289;1271;22773;-81
2022/10/05 06:26:17;;;;;;;15.20;12.20;;;;;;;7.56;100.00;98630.02;106267;1271;22685;-81
2022/10/05 06:28:56;;;;;;;15.70;10.20;;;;;;;7.66;100.00;98629.33;106239;1271;22657;-82
2022/10/05 06:32:03;;;;;;;17.60;14.10;;;;;;;7.78;100.00;98630.98;106334;1271;23284;-81
2022/10/05 06:34:50;;;;;;;18.90;12.20;;;;;;;7.94;100.00;98628.95;106220;1271;22531;-81
2022/10/05 06:37:32;;;;;;;17.30;14.50;;;;;;;8.08;100.00;98618.46;106386;1269;23968;-81
2022/10/05 06:40:32;;;;;;;16.10;12.50;;;;;;;8.19;100.00;98606.79;106169;1271;22672;-81
2022/10/05 06:43:28;;;;;;;20.90;14.10;;;;;;;8.30;100.00;98598.65;106205;1274;25420;-81
2022/10/05 06:46:22;;;;;;;19.60;15.40;;;;;;;8.45;100.00;98597.94;106331;1271;23077;-81
2022/10/05 06:49:14;;;;;;;17.20;12.70;;;;;;;8.61;100.00;98602.35;106037;1271;22680;-81
2022/10/05 06:52:25;;;;;;;17.10;13.10;;;;;;;8.76;100.00;98610.68;106164;1271;22530;-82
2022/10/05 06:55:08;;;;;;;15.00;12.30;;;;;;;8.93;100.00;98608.73;106405;1271;22661;-81
2022/10/05 06:58:22;;;;;;;21.70;16.20;;;;;;;9.07;100.00;98615.71;106462;1271;24022;-81
2022/10/05 07:01:35;;;;;;;18.30;13.90;;;;;;;9.21;100.00;98625.80;106365;1271;22788;-81
2022/10/05 07:04:57;;;;;;;21.70;16.50;;;;;;;9.31;100.00;98626.91;106386;1271;25639;-82
2022/10/05 07:07:44;;;;;;;14.70;10.60;;;;;;;9.48;100.00;98625.26;105850;1277;24228;-81
2022/10/05 07:10:33;;;;;;;14.00;10.50;;;;;;;9.63;100.00;98620.68;105802;1277;23208;-81
2022/10/05 07:13:45;;;;;;;16.70;12.50;;;;;;;9.79;100.00;98609.80;105901;1277;22679;-82
2022/10/05 07:16:25;;;;;;;18.40;12.30;;;;;;;9.98;100.00;98607.73;105933;1277;25943;-82
2022/10/05 07:18:54;;;;;;;11.70;8.20;;;;;;;10.12;100.00;98607.92;105960;1277;25413;-82
2022/10/05 07:21:38;;;;;;;17.00;9.50;;;;;;;10.21;100.00;98613.37;106007;1277;25510;-82
2022/10/05 07:24:41;;;;;;;14.80;9.50;;;;;;;10.31;100.00;98616.62;105945;1277;25318;-82
2022/10/05 07:27:17;;;;;;;13.60;8.60;;;;;;;10.41;100.00;98607.73;105919;1277;22753;-82
2022/10/05 07:30:00;;;;;;;14.10;8.90;;;;;;;10.50;100.00;98612.02;105952;1277;22651;-82
2022/10/05 07:32:49;;;;;;;;;;;;;;;10.63;100.00;98604.86;106002;1277;24210;-81
2022/10/05 07:38:36;;;;;;;11.30;8.10;;;;;;;10.92;100.00;98602.58;105808;1277;25236;-82
2022/10/05 07:41:13;;;;;;;13.40;8.30;;;;;;;11.05;100.00;98600.14;105839;1277;25359;-82
2022/10/05 07:43:50;;;;;;;13.60;9.10;;;;;;;11.16;100.00;98599.38;106279;1271;22708;-82
2022/10/05 07:46:48;;;;;;;12.00;9.20;;;;;;;11.29;100.00;98605.46;106262;1271;22646;-82
2022/10/05 07:49:43;;;;;;;12.40;8.60;;;;;;;11.42;100.00;98611.63;106439;1271;24096;-82
2022/10/05 07:52:15;;;;;;;;;;;;;;;11.52;100.00;98617.13;106439;1271;23901;-83
2022/10/05 07:54:53;;;;;;;13.60;8.80;;;;;;;11.64;100.00;98614.41;106355;1271;26018;-83
2022/10/05 07:57:58;;;;;;;12.40;9.30;;;;;;;11.79;100.00;98607.32;106338;1271;24357;-82
2022/10/05 08:00:49;;;;;;;9.80;7.80;;;;;;;11.97;100.00;98609.65;106374;1269;22534;-82
2022/10/05 08:03:46;;;;;;;14.70;9.30;;;;;;;12.16;100.00;98605.58;106389;1271;24218;-82
2022/10/05 08:06:34;;;;;;;12.00;8.00;;;;;;;12.35;100.00;98607.84;106417;1271;22573;-82
2022/10/05 08:09:37;;;;;;;10.10;7.50;;;;;;;12.49;99.86;98612.39;106395;1271;22526;-81
2022/10/05 08:12:12;;;;;;;15.40;8.00;;;;;;;12.60;99.88;98605.09;106382;1271;25336;-82
2022/10/05 08:14:47;;;;;;;15.00;11.10;;;;;;;12.72;99.73;98606.80;106375;1271;22724;-83
2022/10/05 08:17:38;;;;;;;13.50;8.40;;;;;;;12.82;99.02;98606.31;106350;1271;22543;-83
2022/10/05 08:20:16;;;;;;;10.70;8.10;;;;;;;12.95;98.15;98611.75;106234;1271;22750;-83
2022/10/05 08:22:52;;;;;;;10.90;8.00;;;;;;;13.08;98.65;98622.21;106240;1271;24178;-82
2022/10/05 08:25:27;;;;;;;11.00;8.00;;;;;;;13.17;98.05;98621.00;106318;1271;22875;-82
2022/10/05 08:28:03;;;;;;;10.20;8.00;;;;;;;13.27;98.38;98620.31;106286;1271;24412;-83
2022/10/05 08:30:47;;;;;;;18.90;9.00;;;;;;;13.34;96.72;98623.61;106275;1271;22544;-83
2022/10/05 08:33:19;;;;;;;10.40;8.60;;;;;;;13.41;95.10;98629.11;106230;1271;22673;-83
2022/10/05 08:36:09;;;;;;;15.50;13.30;;;;;;;13.41;94.55;98628.19;106271;1271;22713;-83
2022/10/05 08:38:39;;;;;;;15.90;9.80;;;;;;;13.45;92.53;98631.65;106268;1271;24110;-82
2022/10/05 08:41:43;;;;;;;14.90;9.50;;;;;;;13.51;91.54;98629.14;106296;1271;23032;-82
2022/10/05 08:44:30;;;;;;;;;;;;;;;13.54;89.23;98629.67;106263;1271;25594;-82
2022/10/05 08:47:15;;;;;;;9.90;7.40;;;;;;;13.53;87.74;98633.28;106213;1271;22566;-82
2022/10/05 08:49:43;;;;;;;13.10;8.90;;;;;;;13.48;87.71;98630.28;106345;1271;23519;-82
2022/10/05 08:52:24;;;;;;;11.60;7.70;;;;;;;13.48;85.72;98623.73;106214;1271;25621;-82
2022/10/05 08:55:26;;;;;;;11.50;7.80;;;;;;;13.45;84.55;98626.23;106343;1271;22847;-81
2022/10/05 08:58:12;;;;;;;11.40;6.90;;;;;;;13.46;84.05;98632.48;106420;1271;24297;-82
2022/10/05 09:01:13;;;;;;;13.80;7.30;;;;;;;13.51;83.12;98637.48;106334;1271;22624;-82
2022/10/05 09:04:15;;;;;;;11.90;6.50;;;;;;;13.60;83.00;98637.75;106339;1271;22525;-82
2022/10/05 09:07:12;;;;;;;12.00;7.20;;;;;;;13.65;83.55;98637.59;106385;1271;24405;-83
2022/10/05 09:09:52;;;;;;;11.80;8.00;;;;;;;13.76;84.60;98636.80;106243;1271;22608;-82
2022/10/05 09:12:45;;;;;;;10.60;7.50;;;;;;;13.84;82.11;98644.69;106355;1271;22562;-82
2022/10/05 09:15:25;;;;;;;12.00;8.40;;;;;;;13.90;83.94;98642.95;106353;1271;22593;-83
2022/10/05 09:18:15;;;;;;;10.50;7.60;;;;;;;13.99;83.50;98636.73;106339;1271;22660;-81
2022/10/05 09:21:07;;;;;;;11.40;8.00;;;;;;;14.11;84.06;98632.04;106325;1271;25460;-82
2022/10/05 09:23:43;;;;;;;14.70;8.50;;;;;;;14.24;83.44;98627.67;106201;1271;22564;-83
2022/10/05 09:26:31;;;;;;;14.40;8.30;;;;;;;14.34;83.48;98623.73;106200;1271;25290;-82
2022/10/05 09:29:37;;;;;;;14.30;8.20;;;;;;;14.48;81.72;98627.92;106180;1271;22535;-83
2022/10/05 09:32:17;;;;;;;15.00;8.00;;;;;;;14.58;81.83;98629.85;106221;1271;25304;-83
2022/10/05 09:34:52;;;;;;;12.00;8.90;;;;;;;14.68;82.01;98631.36;106201;1271;25415;-82
2022/10/05 09:37:38;;;;;;;13.20;7.90;;;;;;;14.74;80.58;98632.79;106238;1271;22697;-82
2022/10/05 09:40:18;;;;;;;14.40;7.30;;;;;;;14.78;80.01;98638.98;106446;1271;25634;-81
2022/10/05 09:43:08;;;;;;;11.40;8.50;;;;;;;14.76;78.03;98642.12;106184;1271;24332;-82
2022/10/05 09:46:03;;;;;;;14.20;8.60;;;;;;;14.67;75.24;98642.34;106280;1271;22695;-82
2022/10/05 09:49:10;;;;;;;13.40;7.40;;;;;;;14.59;74.52;98639.42;106309;1271;22842;-83
2022/10/05 09:51:47;;;;;;;11.10;6.90;;;;;;;14.56;76.30;98634.89;106335;1271;22543;-83
2022/10/05 09:54:42;;;;;;;11.90;7.60;;;;;;;14.60;76.09;98631.71;106338;1271;23310;-82
2022/10/05 09:57:48;;;;;;;13.00;8.10;;;;;;;14.66;76.30;98631.34;106084;1274;216779;-81
2022/10/05 10:00:22;;;;;;;13.00;8.40;;;;;;;14.84;76.96;98637.42;106210;1271;22790;-84
2022/10/05 10:02:56;;;;;;;11.60;7.30;;;;;;;14.98;75.36;98641.86;106302;1271;22901;-82
2022/10/05 10:05:33;;;;;;;10.30;7.00;;;;;;;15.06;72.88;98650.55;106215;1271;22530;-82
2022/10/05 10:08:20;;;;;;;10.30;7.10;;;;;;;14.98;71.15;98650.60;106232;1271;25296;-83
2022/10/05 10:11:17;;;;;;;13.30;9.00;;;;;;;14.86;71.80;98645.41;106219;1271;23306;-83
2022/10/05 10:13:54;;;;;;;10.70;7.80;;;;;;;14.80;71.46;98647.40;106286;1271;22528;-85
2022/10/05 10:16:53;;;;;;;16.20;10.40;;;;;;;14.76;71.99;98637.34;106208;1271;25352;-83
2022/10/05 10:19:43;;;;;;;11.80;8.30;;;;;;;14.79;72.51;98634.05;106266;1274;22714;-83
2022/10/05 10:22:36;;;;;;;18.70;9.50;;;;;;;14.87;73.06;98633.51;106287;1271;24411;-82
2022/10/05 10:25:30;;;;;;;13.10;8.40;;;;;;;15.02;72.14;98629.86;106227;1271;23387;-83
2022/10/05 10:28:36;;;;;;;16.60;9.60;;;;;;;15.15;70.85;98631.93;106251;1271;23960;-83
2022/10/05 10:31:56;;;;;;;13.80;9.50;;;;;;;15.21;70.74;98635.42;106425;1271;22712;-83
2022/10/05 10:34:33;;;;;;;16.10;8.80;;;;;;;15.32;72.10;98632.41;106113;1274;22666;-82
2022/10/05 10:37:30;;;;;;;13.50;9.10;;;;;;;15.48;72.10;98632.73;106390;1271;24351;-82
2022/10/05 10:40:07;;;;;;;17.60;11.60;;;;;;;15.72;72.38;98632.98;106419;1271;25296;-82
2022/10/05 10:43:12;;;;;;;14.80;10.60;;;;;;;15.89;73.07;98638.77;106289;1271;22541;-83
2022/10/05 10:46:19;;;;;;;19.00;9.90;;;;;;;16.08;71.58;98643.46;106261;1271;22543;-83
2022/10/05 10:49:08;;;;;;;14.30;7.70;;;;;;;16.16;70.89;98642.23;105932;1271;22695;-83
2022/10/05 10:51:45;;;;;;;13.60;8.50;;;;;;;16.25;70.39;98643.92;106385;1270;22594;-82
2022/10/05 10:54:40;;;;;;;11.50;7.20;;;;;;;16.31;70.25;98640.52;106382;1271;25414;-82
2022/10/05 10:57:12;;;;;;;10.20;7.00;;;;;;;16.33;70.25;98630.80;106360;1271;23336;-82
2022/10/05 11:00:02;;;;;;;12.90;7.50;;;;;;;16.44;70.74;98633.02;106337;1271;24094;-84
2022/10/05 11:02:55;;;;;;;19.40;9.30;;;;;;;16.57;70.68;98627.61;106343;1271;24114;-83
2022/10/05 11:05:30;;;;;;;10.30;7.20;;;;;;;16.73;71.14;98624.12;106205;1271;22540;-83
2022/10/05 11:08:24;;;;;;;11.50;6.80;;;;;;;16.85;71.20;98620.32;106177;1271;25584;-83
2022/10/05 11:10:55;;;;;;;9.70;6.70;;;;;;;16.94;70.24;98623.18;106193;1271;23919;-82
2022/10/05 11:13:52;;;;;;;10.00;6.60;;;;;;;16.94;70.14;98621.98;106200;1271;25390;-83
2022/10/05 11:16:45;;;;;;;14.50;8.30;;;;;;;17.01;70.60;98624.31;106188;1271;25300;-86
2022/10/05 11:19:46;;;;;;;21.30;12.00;;;;;;;17.02;67.94;98624.84;106182;1271;25652;-81
2022/10/05 11:22:49;;;;;;;17.40;8.70;;;;;;;16.95;69.01;98619.24;106214;1271;22541;-82
2022/10/05 11:25:52;;;;;;;22.20;9.50;;;;;;;16.94;67.68;98620.19;106191;1271;22654;-82
2022/10/05 11:28:33;;;;;;;15.30;7.30;;;;;;;16.88;66.83;98617.88;106290;1271;24049;-83
2022/10/05 11:31:20;;;;;;;13.70;7.10;;;;;;;16.91;68.06;98616.16;106336;1271;24274;-85
2022/10/05 11:34:07;;;;;;;9.80;6.20;;;;;;;17.02;68.71;98615.20;106328;1271;25244;-82
2022/10/05 11:36:44;;;;;;;14.40;7.50;;;;;;;17.10;68.44;98617.59;106452;1271;23358;-85
2022/10/05 11:39:32;;;;;;;10.30;7.30;;;;;;;17.15;66.31;98618.67;106429;1271;22601;-84
2022/10/05 11:42:34;;;;;;;56.40;11.50;;;;;;;17.13;67.12;98613.73;106417;1271;22612;-83
2022/10/05 11:45:18;;;;;;;13.80;8.40;;;;;;;17.13;66.06;98612.96;106339;1271;22748;-81
2022/10/05 11:47:58;;;;;;;12.30;6.50;;;;;;;17.10;66.28;98613.36;106302;1271;23138;-83
2022/10/05 11:50:56;;;;;;;13.10;6.40;;;;;;;17.06;64.99;98613.66;106351;1271;22557;-82
2022/10/05 11:53:33;;;;;;;12.00;6.40;;;;;;;16.91;64.64;98615.06;106279;1271;22660;-82
2022/10/05 11:56:18;;;;;;;9.50;6.60;;;;;;;16.87;65.76;98605.30;106358;1270;22793;-84
2022/10/05 11:59:04;;;;;;;10.60;6.50;;;;;;;16.94;65.11;98600.55;106397;1270;23031;-83
2022/10/05 12:02:13;;;;;;;25.20;6.60;;;;;;;17.05;65.05;98593.71;106207;1271;24064;-83
2022/10/05 12:05:10;;;;;;;9.70;6.30;;;;;;;17.13;64.74;98591.34;106229;1274;24098;-82
2022/10/05 12:08:05;;;;;;;8.80;5.40;;;;;;;17.30;65.86;98594.63;106213;1274;22646;-82
2022/10/05 12:10:59;;;;;;;9.90;5.60;;;;;;;17.45;65.46;98595.95;106000;1274;23439;-83
2022/10/05 12:13:27;;;;;;;10.70;6.40;;;;;;;17.55;65.57;98589.61;106087;1274;24367;-83
2022/10/05 12:16:25;;;;;;;10.60;5.80;;;;;;;17.61;63.92;98595.71;106169;1274;22741;-83
2022/10/05 12:19:30;;;;;;;10.80;5.70;;;;;;;17.62;62.70;98589.02;106186;1274;22598;-83
2022/10/05 12:22:22;;;;;;;11.40;6.10;;;;;;;17.70;63.71;98592.63;106041;1277;25239;-83
2022/10/05 12:25:05;;;;;;;13.80;5.80;;;;;;;17.82;62.16;98592.61;105998;1277;22552;-85
2022/10/05 12:27:39;;;;;;;19.00;6.30;;;;;;;17.80;59.85;98591.41;106031;1277;22537;-83
2022/10/05 12:30:12;;;;;;;7.90;4.90;;;;;;;17.71;59.07;98590.60;106015;1277;22576;-83
2022/10/05 12:33:05;;;;;;;8.20;4.40;;;;;;;17.67;58.40;98591.61;105961;1277;22703;-84
2022/10/05 12:35:33;;;;;;;6.60;4.50;;;;;;;17.62;57.13;98577.55;106130;1277;22576;-83
2022/10/05 12:38:27;;;;;;;9.40;4.90;;;;;;;17.53;56.59;98570.88;106216;1274;22527;-85
2022/10/05 12:41:03;;;;;;;9.90;5.10;;;;;;;17.53;56.98;98561.23;106216;1274;23440;-83
2022/10/05 12:43:35;;;;;;;5.90;4.00;;;;;;;17.58;56.43;98552.07;106137;1274;23946;-84